Acton, Maine
Current Conditions -  °F | °C
As of 10:35 PM on Monday 22 Dec 2014 (Local Time) from KSFM Reporting Station
Overcast Overcast  
Wind Chill: 27°   Ceiling: 500
Heat Index: 32°   Visibility: 10mi
Dew Point: 27°   Wind: 5mph
Humidity: 80%   Direction: 360°N
Pressure: 30.35"   Gusts: NA
Location:  43.53°N, 70.91°W
Report Text: KSFM 230335Z AUTO 36004KT 10SM OVC005 00/M03 A3035 RMK AO1
Loading
Personal Weather Stations






























Interactive Weather Map New forecast layout! Learn more

10-Day Weather Forecast

Advertisements
Track Severe Weather on mobile